sensor_id;sensor_type;location;lat;lon;timestamp;P1;durP1;ratioP1;P2;durP2;ratioP2
28078;SDS011;15388;42.238;24.684;2023-09-18T00:00:42;5.35;;;3.45;;
28078;SDS011;15388;42.238;24.684;2023-09-18T00:03:09;7.00;;;3.45;;
28078;SDS011;15388;42.238;24.684;2023-09-18T00:05:34;5.28;;;3.83;;
28078;SDS011;15388;42.238;24.684;2023-09-18T00:08:00;7.63;;;3.67;;
28078;SDS011;15388;42.238;24.684;2023-09-18T00:10:27;5.20;;;3.38;;
28078;SDS011;15388;42.238;24.684;2023-09-18T00:12:55;5.22;;;3.30;;
28078;SDS011;15388;42.238;24.684;2023-09-18T00:15:21;8.82;;;3.67;;
28078;SDS011;15388;42.238;24.684;2023-09-18T00:17:46;8.73;;;5.38;;
28078;SDS011;15388;42.238;24.684;2023-09-18T00:20:12;8.68;;;4.00;;
28078;SDS011;15388;42.238;24.684;2023-09-18T00:22:38;8.55;;;3.53;;
28078;SDS011;15388;42.238;24.684;2023-09-18T00:25:04;8.05;;;3.42;;
28078;SDS011;15388;42.238;24.684;2023-09-18T00:27:30;3.85;;;3.20;;
28078;SDS011;15388;42.238;24.684;2023-09-18T00:29:55;7.35;;;3.25;;
28078;SDS011;15388;42.238;24.684;2023-09-18T00:32:21;12.52;;;3.28;;
28078;SDS011;15388;42.238;24.684;2023-09-18T00:34:46;8.05;;;3.42;;
28078;SDS011;15388;42.238;24.684;2023-09-18T00:37:12;10.48;;;3.78;;
28078;SDS011;15388;42.238;24.684;2023-09-18T00:39:38;6.78;;;3.53;;
28078;SDS011;15388;42.238;24.684;2023-09-18T00:42:04;6.82;;;3.78;;
28078;SDS011;15388;42.238;24.684;2023-09-18T00:44:29;6.70;;;4.13;;
28078;SDS011;15388;42.238;24.684;2023-09-18T00:46:55;11.60;;;3.42;;
28078;SDS011;15388;42.238;24.684;2023-09-18T00:49:22;7.03;;;3.25;;
28078;SDS011;15388;42.238;24.684;2023-09-18T00:54:16;4.65;;;3.10;;
28078;SDS011;15388;42.238;24.684;2023-09-18T00:56:46;6.40;;;3.13;;
28078;SDS011;15388;42.238;24.684;2023-09-18T00:59:13;6.65;;;3.97;;
28078;SDS011;15388;42.238;24.684;2023-09-18T01:01:40;13.07;;;4.10;;
28078;SDS011;15388;42.238;24.684;2023-09-18T01:04:07;5.82;;;3.00;;
28078;SDS011;15388;42.238;24.684;2023-09-18T01:06:32;9.30;;;3.90;;
28078;SDS011;15388;42.238;24.684;2023-09-18T01:08:58;7.28;;;4.00;;
28078;SDS011;15388;42.238;24.684;2023-09-18T01:11:35;7.60;;;3.88;;
28078;SDS011;15388;42.238;24.684;2023-09-18T01:16:40;11.00;;;3.25;;
28078;SDS011;15388;42.238;24.684;2023-09-18T01:19:15;7.43;;;3.25;;
28078;SDS011;15388;42.238;24.684;2023-09-18T01:21:41;8.45;;;3.88;;
28078;SDS011;15388;42.238;24.684;2023-09-18T01:24:07;6.20;;;3.08;;
28078;SDS011;15388;42.238;24.684;2023-09-18T01:26:32;5.75;;;3.53;;
28078;SDS011;15388;42.238;24.684;2023-09-18T01:28:57;7.47;;;4.13;;
28078;SDS011;15388;42.238;24.684;2023-09-18T01:31:23;7.00;;;3.28;;
28078;SDS011;15388;42.238;24.684;2023-09-18T01:33:49;7.93;;;3.70;;
28078;SDS011;15388;42.238;24.684;2023-09-18T01:36:15;6.90;;;3.70;;
28078;SDS011;15388;42.238;24.684;2023-09-18T01:38:43;6.95;;;3.47;;
28078;SDS011;15388;42.238;24.684;2023-09-18T01:41:09;10.27;;;3.38;;
28078;SDS011;15388;42.238;24.684;2023-09-18T01:43:35;7.00;;;3.65;;
28078;SDS011;15388;42.238;24.684;2023-09-18T01:46:01;7.40;;;3.78;;
28078;SDS011;15388;42.238;24.684;2023-09-18T01:48:26;8.57;;;3.30;;
28078;SDS011;15388;42.238;24.684;2023-09-18T01:50:52;5.40;;;3.80;;
28078;SDS011;15388;42.238;24.684;2023-09-18T01:53:17;4.93;;;3.72;;
28078;SDS011;15388;42.238;24.684;2023-09-18T01:55:43;8.00;;;3.85;;
28078;SDS011;15388;42.238;24.684;2023-09-18T01:58:09;8.23;;;3.72;;
28078;SDS011;15388;42.238;24.684;2023-09-18T02:00:34;8.82;;;3.70;;
28078;SDS011;15388;42.238;24.684;2023-09-18T02:03:00;4.95;;;3.38;;
28078;SDS011;15388;42.238;24.684;2023-09-18T02:05:25;8.38;;;3.92;;
28078;SDS011;15388;42.238;24.684;2023-09-18T02:07:52;8.18;;;3.63;;
28078;SDS011;15388;42.238;24.684;2023-09-18T02:10:17;9.57;;;3.70;;
28078;SDS011;15388;42.238;24.684;2023-09-18T02:12:43;5.97;;;3.22;;
28078;SDS011;15388;42.238;24.684;2023-09-18T02:15:08;7.65;;;3.42;;
28078;SDS011;15388;42.238;24.684;2023-09-18T02:17:36;6.15;;;3.50;;
28078;SDS011;15388;42.238;24.684;2023-09-18T02:20:02;8.18;;;3.42;;
28078;SDS011;15388;42.238;24.684;2023-09-18T02:22:31;4.88;;;3.78;;
28078;SDS011;15388;42.238;24.684;2023-09-18T02:24:57;6.03;;;3.95;;
28078;SDS011;15388;42.238;24.684;2023-09-18T02:27:23;7.97;;;4.70;;
28078;SDS011;15388;42.238;24.684;2023-09-18T02:29:49;6.57;;;3.72;;
28078;SDS011;15388;42.238;24.684;2023-09-18T02:32:15;5.53;;;3.67;;
28078;SDS011;15388;42.238;24.684;2023-09-18T02:34:41;6.93;;;5.13;;
28078;SDS011;15388;42.238;24.684;2023-09-18T02:37:06;8.82;;;4.35;;
28078;SDS011;15388;42.238;24.684;2023-09-18T02:39:32;5.43;;;3.80;;
28078;SDS011;15388;42.238;24.684;2023-09-18T02:41:57;8.32;;;4.07;;
28078;SDS011;15388;42.238;24.684;2023-09-18T02:44:23;7.10;;;4.03;;
28078;SDS011;15388;42.238;24.684;2023-09-18T02:46:49;7.72;;;4.22;;
28078;SDS011;15388;42.238;24.684;2023-09-18T02:49:14;7.25;;;4.40;;
28078;SDS011;15388;42.238;24.684;2023-09-18T02:51:39;13.90;;;4.85;;
28078;SDS011;15388;42.238;24.684;2023-09-18T02:54:05;11.68;;;4.35;;
28078;SDS011;15388;42.238;24.684;2023-09-18T02:56:31;9.63;;;4.60;;
28078;SDS011;15388;42.238;24.684;2023-09-18T02:58:56;7.35;;;5.15;;
28078;SDS011;15388;42.238;24.684;2023-09-18T03:01:22;8.25;;;4.43;;
28078;SDS011;15388;42.238;24.684;2023-09-18T03:03:47;7.15;;;4.15;;
28078;SDS011;15388;42.238;24.684;2023-09-18T03:06:13;11.43;;;3.88;;
28078;SDS011;15388;42.238;24.684;2023-09-18T03:08:38;10.10;;;4.57;;
28078;SDS011;15388;42.238;24.684;2023-09-18T03:11:10;9.30;;;3.67;;
28078;SDS011;15388;42.238;24.684;2023-09-18T03:13:36;7.78;;;4.85;;
28078;SDS011;15388;42.238;24.684;2023-09-18T03:16:01;9.27;;;5.30;;
28078;SDS011;15388;42.238;24.684;2023-09-18T03:18:27;8.45;;;4.40;;
28078;SDS011;15388;42.238;24.684;2023-09-18T03:20:53;4.28;;;3.50;;
28078;SDS011;15388;42.238;24.684;2023-09-18T03:23:19;11.27;;;4.95;;
28078;SDS011;15388;42.238;24.684;2023-09-18T03:25:44;6.43;;;4.00;;
28078;SDS011;15388;42.238;24.684;2023-09-18T03:28:10;11.20;;;4.30;;
28078;SDS011;15388;42.238;24.684;2023-09-18T03:30:35;27.10;;;6.55;;
28078;SDS011;15388;42.238;24.684;2023-09-18T03:33:01;11.85;;;4.10;;
28078;SDS011;15388;42.238;24.684;2023-09-18T03:35:28;12.95;;;4.57;;
28078;SDS011;15388;42.238;24.684;2023-09-18T03:37:54;8.75;;;4.35;;
28078;SDS011;15388;42.238;24.684;2023-09-18T03:40:20;14.23;;;4.90;;
28078;SDS011;15388;42.238;24.684;2023-09-18T03:42:46;10.88;;;4.88;;
28078;SDS011;15388;42.238;24.684;2023-09-18T03:45:13;13.32;;;6.85;;
28078;SDS011;15388;42.238;24.684;2023-09-18T03:47:39;10.43;;;5.38;;
28078;SDS011;15388;42.238;24.684;2023-09-18T03:50:08;11.30;;;5.67;;
28078;SDS011;15388;42.238;24.684;2023-09-18T03:52:35;8.30;;;4.43;;
28078;SDS011;15388;42.238;24.684;2023-09-18T03:55:01;10.45;;;3.97;;
28078;SDS011;15388;42.238;24.684;2023-09-18T03:57:27;8.57;;;4.93;;
28078;SDS011;15388;42.238;24.684;2023-09-18T03:59:53;8.02;;;4.57;;
28078;SDS011;15388;42.238;24.684;2023-09-18T04:02:19;11.20;;;5.22;;
28078;SDS011;15388;42.238;24.684;2023-09-18T04:04:45;11.70;;;4.32;;
28078;SDS011;15388;42.238;24.684;2023-09-18T04:07:10;8.60;;;4.90;;
28078;SDS011;15388;42.238;24.684;2023-09-18T04:09:37;10.45;;;6.30;;
28078;SDS011;15388;42.238;24.684;2023-09-18T04:12:03;12.70;;;5.23;;
28078;SDS011;15388;42.238;24.684;2023-09-18T04:14:32;35.45;;;8.00;;
28078;SDS011;15388;42.238;24.684;2023-09-18T04:16:58;18.20;;;5.40;;
28078;SDS011;15388;42.238;24.684;2023-09-18T04:21:50;9.18;;;3.70;;
28078;SDS011;15388;42.238;24.684;2023-09-18T04:24:16;7.10;;;4.43;;
28078;SDS011;15388;42.238;24.684;2023-09-18T04:26:42;9.48;;;4.93;;
28078;SDS011;15388;42.238;24.684;2023-09-18T04:29:08;8.35;;;4.57;;
28078;SDS011;15388;42.238;24.684;2023-09-18T04:31:33;13.07;;;4.90;;
28078;SDS011;15388;42.238;24.684;2023-09-18T04:33:59;11.13;;;4.35;;
28078;SDS011;15388;42.238;24.684;2023-09-18T04:36:24;8.20;;;4.25;;
28078;SDS011;15388;42.238;24.684;2023-09-18T04:38:51;14.80;;;5.25;;
28078;SDS011;15388;42.238;24.684;2023-09-18T04:41:16;12.35;;;4.75;;
28078;SDS011;15388;42.238;24.684;2023-09-18T04:43:42;16.77;;;4.32;;
28078;SDS011;15388;42.238;24.684;2023-09-18T04:46:08;8.35;;;4.95;;
28078;SDS011;15388;42.238;24.684;2023-09-18T04:48:33;17.13;;;5.78;;
28078;SDS011;15388;42.238;24.684;2023-09-18T04:50:59;10.15;;;6.50;;
28078;SDS011;15388;42.238;24.684;2023-09-18T04:53:25;10.13;;;4.50;;
28078;SDS011;15388;42.238;24.684;2023-09-18T04:55:53;9.00;;;5.05;;
28078;SDS011;15388;42.238;24.684;2023-09-18T04:58:20;14.63;;;5.25;;
28078;SDS011;15388;42.238;24.684;2023-09-18T05:00:46;17.73;;;6.23;;
28078;SDS011;15388;42.238;24.684;2023-09-18T05:03:12;9.95;;;4.18;;
28078;SDS011;15388;42.238;24.684;2023-09-18T05:05:38;10.88;;;4.32;;
28078;SDS011;15388;42.238;24.684;2023-09-18T05:08:05;9.32;;;4.93;;
28078;SDS011;15388;42.238;24.684;2023-09-18T05:10:35;7.97;;;4.88;;
28078;SDS011;15388;42.238;24.684;2023-09-18T05:13:01;10.45;;;4.82;;
28078;SDS011;15388;42.238;24.684;2023-09-18T05:15:27;11.52;;;5.22;;
28078;SDS011;15388;42.238;24.684;2023-09-18T05:17:56;16.15;;;4.55;;
28078;SDS011;15388;42.238;24.684;2023-09-18T05:20:27;13.98;;;4.53;;
28078;SDS011;15388;42.238;24.684;2023-09-18T05:22:54;13.43;;;5.78;;
28078;SDS011;15388;42.238;24.684;2023-09-18T05:25:21;8.95;;;4.70;;
28078;SDS011;15388;42.238;24.684;2023-09-18T05:27:48;8.82;;;4.85;;
28078;SDS011;15388;42.238;24.684;2023-09-18T05:30:21;9.95;;;4.50;;
28078;SDS011;15388;42.238;24.684;2023-09-18T05:32:53;9.38;;;4.90;;
28078;SDS011;15388;42.238;24.684;2023-09-18T05:35:19;9.37;;;5.90;;
28078;SDS011;15388;42.238;24.684;2023-09-18T05:37:46;11.23;;;6.50;;
28078;SDS011;15388;42.238;24.684;2023-09-18T05:40:12;20.67;;;6.13;;
28078;SDS011;15388;42.238;24.684;2023-09-18T05:42:40;11.23;;;4.57;;
28078;SDS011;15388;42.238;24.684;2023-09-18T05:45:13;6.20;;;4.65;;
28078;SDS011;15388;42.238;24.684;2023-09-18T05:47:40;12.45;;;6.10;;
28078;SDS011;15388;42.238;24.684;2023-09-18T05:50:06;13.23;;;5.75;;
28078;SDS011;15388;42.238;24.684;2023-09-18T05:52:34;14.90;;;4.80;;
28078;SDS011;15388;42.238;24.684;2023-09-18T05:55:01;14.45;;;5.45;;
28078;SDS011;15388;42.238;24.684;2023-09-18T05:57:27;14.32;;;5.47;;
28078;SDS011;15388;42.238;24.684;2023-09-18T05:59:56;6.80;;;5.07;;
28078;SDS011;15388;42.238;24.684;2023-09-18T06:02:21;15.07;;;6.50;;
28078;SDS011;15388;42.238;24.684;2023-09-18T06:04:48;22.75;;;7.15;;
28078;SDS011;15388;42.238;24.684;2023-09-18T06:07:13;8.63;;;5.72;;
28078;SDS011;15388;42.238;24.684;2023-09-18T06:09:39;17.48;;;5.65;;
28078;SDS011;15388;42.238;24.684;2023-09-18T06:12:06;19.30;;;6.75;;
28078;SDS011;15388;42.238;24.684;2023-09-18T06:14:32;10.90;;;5.80;;
28078;SDS011;15388;42.238;24.684;2023-09-18T06:17:00;9.98;;;5.47;;
28078;SDS011;15388;42.238;24.684;2023-09-18T06:19:26;10.77;;;4.88;;
28078;SDS011;15388;42.238;24.684;2023-09-18T06:21:51;16.48;;;5.93;;
28078;SDS011;15388;42.238;24.684;2023-09-18T06:24:17;7.75;;;4.82;;
28078;SDS011;15388;42.238;24.684;2023-09-18T06:26:42;6.95;;;4.65;;
28078;SDS011;15388;42.238;24.684;2023-09-18T06:29:07;9.88;;;4.70;;
28078;SDS011;15388;42.238;24.684;2023-09-18T06:31:34;9.60;;;4.50;;
28078;SDS011;15388;42.238;24.684;2023-09-18T06:34:00;10.75;;;4.75;;
28078;SDS011;15388;42.238;24.684;2023-09-18T06:36:25;8.55;;;5.32;;
28078;SDS011;15388;42.238;24.684;2023-09-18T06:38:51;14.27;;;4.82;;
28078;SDS011;15388;42.238;24.684;2023-09-18T06:41:16;27.33;;;5.45;;
28078;SDS011;15388;42.238;24.684;2023-09-18T06:43:42;18.10;;;5.30;;
28078;SDS011;15388;42.238;24.684;2023-09-18T06:46:07;9.27;;;4.85;;
28078;SDS011;15388;42.238;24.684;2023-09-18T06:48:33;9.27;;;4.68;;
28078;SDS011;15388;42.238;24.684;2023-09-18T06:50:59;10.20;;;4.95;;
28078;SDS011;15388;42.238;24.684;2023-09-18T06:53:27;7.45;;;5.13;;
28078;SDS011;15388;42.238;24.684;2023-09-18T06:55:53;14.95;;;5.28;;
28078;SDS011;15388;42.238;24.684;2023-09-18T06:58:19;13.57;;;5.15;;
28078;SDS011;15388;42.238;24.684;2023-09-18T07:00:44;8.80;;;4.43;;
28078;SDS011;15388;42.238;24.684;2023-09-18T07:03:10;10.55;;;4.95;;
28078;SDS011;15388;42.238;24.684;2023-09-18T07:05:36;10.35;;;4.75;;
28078;SDS011;15388;42.238;24.684;2023-09-18T07:08:02;10.48;;;5.63;;
28078;SDS011;15388;42.238;24.684;2023-09-18T07:10:30;12.00;;;5.45;;
28078;SDS011;15388;42.238;24.684;2023-09-18T07:12:56;11.25;;;5.15;;
28078;SDS011;15388;42.238;24.684;2023-09-18T07:15:21;17.98;;;5.25;;
28078;SDS011;15388;42.238;24.684;2023-09-18T07:17:47;11.98;;;5.88;;
28078;SDS011;15388;42.238;24.684;2023-09-18T07:20:13;12.73;;;5.28;;
28078;SDS011;15388;42.238;24.684;2023-09-18T07:22:44;11.77;;;4.88;;
28078;SDS011;15388;42.238;24.684;2023-09-18T07:25:11;10.23;;;4.95;;
28078;SDS011;15388;42.238;24.684;2023-09-18T07:27:37;11.57;;;4.65;;
28078;SDS011;15388;42.238;24.684;2023-09-18T07:30:05;9.63;;;4.90;;
28078;SDS011;15388;42.238;24.684;2023-09-18T07:32:31;23.98;;;5.43;;
28078;SDS011;15388;42.238;24.684;2023-09-18T07:34:57;18.90;;;4.65;;
28078;SDS011;15388;42.238;24.684;2023-09-18T07:37:23;8.60;;;4.30;;
28078;SDS011;15388;42.238;24.684;2023-09-18T07:39:48;11.35;;;4.85;;
28078;SDS011;15388;42.238;24.684;2023-09-18T07:42:14;8.90;;;4.45;;
28078;SDS011;15388;42.238;24.684;2023-09-18T07:44:40;8.48;;;4.30;;
28078;SDS011;15388;42.238;24.684;2023-09-18T07:47:05;8.15;;;3.95;;
28078;SDS011;15388;42.238;24.684;2023-09-18T07:49:31;8.07;;;4.50;;
28078;SDS011;15388;42.238;24.684;2023-09-18T07:51:56;7.90;;;4.72;;
28078;SDS011;15388;42.238;24.684;2023-09-18T07:54:22;6.07;;;3.88;;
28078;SDS011;15388;42.238;24.684;2023-09-18T07:56:47;7.28;;;3.70;;
28078;SDS011;15388;42.238;24.684;2023-09-18T07:59:12;4.28;;;3.42;;
28078;SDS011;15388;42.238;24.684;2023-09-18T08:01:39;9.18;;;3.42;;
28078;SDS011;15388;42.238;24.684;2023-09-18T08:04:06;8.18;;;3.45;;
28078;SDS011;15388;42.238;24.684;2023-09-18T08:06:31;7.22;;;3.63;;
28078;SDS011;15388;42.238;24.684;2023-09-18T08:08:57;6.32;;;3.58;;
28078;SDS011;15388;42.238;24.684;2023-09-18T08:11:23;4.40;;;3.10;;
28078;SDS011;15388;42.238;24.684;2023-09-18T08:13:48;6.10;;;3.20;;
28078;SDS011;15388;42.238;24.684;2023-09-18T08:16:14;9.68;;;2.75;;
28078;SDS011;15388;42.238;24.684;2023-09-18T08:18:39;8.68;;;3.33;;
28078;SDS011;15388;42.238;24.684;2023-09-18T08:21:06;9.02;;;3.28;;
28078;SDS011;15388;42.238;24.684;2023-09-18T08:23:34;24.02;;;4.68;;
28078;SDS011;15388;42.238;24.684;2023-09-18T08:28:27;8.07;;;3.47;;
28078;SDS011;15388;42.238;24.684;2023-09-18T08:30:53;7.88;;;3.28;;
28078;SDS011;15388;42.238;24.684;2023-09-18T08:33:19;6.22;;;3.50;;
28078;SDS011;15388;42.238;24.684;2023-09-18T08:35:45;11.20;;;4.85;;
28078;SDS011;15388;42.238;24.684;2023-09-18T08:38:12;9.10;;;3.50;;
28078;SDS011;15388;42.238;24.684;2023-09-18T08:40:40;4.38;;;3.00;;
28078;SDS011;15388;42.238;24.684;2023-09-18T08:43:07;35.63;;;5.00;;
28078;SDS011;15388;42.238;24.684;2023-09-18T08:45:38;33.38;;;4.43;;
28078;SDS011;15388;42.238;24.684;2023-09-18T08:48:10;6.53;;;2.78;;
28078;SDS011;15388;42.238;24.684;2023-09-18T08:50:36;8.27;;;3.20;;
28078;SDS011;15388;42.238;24.684;2023-09-18T08:53:04;9.30;;;3.55;;
28078;SDS011;15388;42.238;24.684;2023-09-18T08:55:29;13.18;;;3.20;;
28078;SDS011;15388;42.238;24.684;2023-09-18T08:57:55;20.27;;;5.97;;
28078;SDS011;15388;42.238;24.684;2023-09-18T09:00:24;5.88;;;3.05;;
28078;SDS011;15388;42.238;24.684;2023-09-18T09:02:50;3.83;;;3.08;;
28078;SDS011;15388;42.238;24.684;2023-09-18T09:05:17;5.47;;;3.50;;
28078;SDS011;15388;42.238;24.684;2023-09-18T09:07:43;7.35;;;3.17;;
28078;SDS011;15388;42.238;24.684;2023-09-18T09:10:08;7.43;;;3.35;;
28078;SDS011;15388;42.238;24.684;2023-09-18T09:15:26;6.55;;;4.22;;
28078;SDS011;15388;42.238;24.684;2023-09-18T09:18:03;8.00;;;3.88;;
28078;SDS011;15388;42.238;24.684;2023-09-18T09:20:30;11.07;;;3.70;;
28078;SDS011;15388;42.238;24.684;2023-09-18T09:23:00;6.70;;;3.33;;
28078;SDS011;15388;42.238;24.684;2023-09-18T09:25:30;6.38;;;3.70;;
28078;SDS011;15388;42.238;24.684;2023-09-18T09:28:04;9.07;;;4.40;;
28078;SDS011;15388;42.238;24.684;2023-09-18T09:30:32;4.68;;;3.13;;
28078;SDS011;15388;42.238;24.684;2023-09-18T09:32:59;7.47;;;3.13;;
28078;SDS011;15388;42.238;24.684;2023-09-18T09:35:28;4.32;;;3.13;;
28078;SDS011;15388;42.238;24.684;2023-09-18T09:37:59;5.47;;;3.53;;
28078;SDS011;15388;42.238;24.684;2023-09-18T09:40:26;5.07;;;3.63;;
28078;SDS011;15388;42.238;24.684;2023-09-18T09:42:54;11.25;;;4.80;;
28078;SDS011;15388;42.238;24.684;2023-09-18T09:45:26;7.20;;;3.50;;
28078;SDS011;15388;42.238;24.684;2023-09-18T09:47:54;5.45;;;3.80;;
28078;SDS011;15388;42.238;24.684;2023-09-18T09:50:20;7.82;;;3.25;;
28078;SDS011;15388;42.238;24.684;2023-09-18T09:52:48;4.38;;;3.17;;
28078;SDS011;15388;42.238;24.684;2023-09-18T09:57:48;14.30;;;3.97;;
28078;SDS011;15388;42.238;24.684;2023-09-18T10:00:23;4.53;;;3.55;;
28078;SDS011;15388;42.238;24.684;2023-09-18T10:03:06;5.95;;;3.42;;
28078;SDS011;15388;42.238;24.684;2023-09-18T10:05:37;20.70;;;4.13;;
28078;SDS011;15388;42.238;24.684;2023-09-18T10:08:06;8.02;;;3.30;;
28078;SDS011;15388;42.238;24.684;2023-09-18T10:10:44;4.80;;;3.17;;
28078;SDS011;15388;42.238;24.684;2023-09-18T10:13:18;5.85;;;2.90;;
28078;SDS011;15388;42.238;24.684;2023-09-18T10:15:49;9.73;;;3.58;;
28078;SDS011;15388;42.238;24.684;2023-09-18T10:18:17;5.25;;;3.05;;
28078;SDS011;15388;42.238;24.684;2023-09-18T10:20:48;3.55;;;2.60;;
28078;SDS011;15388;42.238;24.684;2023-09-18T10:23:25;10.52;;;4.05;;
28078;SDS011;15388;42.238;24.684;2023-09-18T10:25:59;5.63;;;3.20;;
28078;SDS011;15388;42.238;24.684;2023-09-18T10:28:28;6.60;;;4.22;;
28078;SDS011;15388;42.238;24.684;2023-09-18T10:30:56;6.57;;;3.47;;
28078;SDS011;15388;42.238;24.684;2023-09-18T10:33:24;5.45;;;3.53;;
28078;SDS011;15388;42.238;24.684;2023-09-18T10:35:50;4.45;;;2.92;;
28078;SDS011;15388;42.238;24.684;2023-09-18T10:38:18;4.55;;;2.90;;
28078;SDS011;15388;42.238;24.684;2023-09-18T10:40:44;5.93;;;3.38;;
28078;SDS011;15388;42.238;24.684;2023-09-18T10:43:12;9.48;;;3.65;;
28078;SDS011;15388;42.238;24.684;2023-09-18T10:45:41;10.60;;;4.20;;
28078;SDS011;15388;42.238;24.684;2023-09-18T10:48:09;6.78;;;4.22;;
28078;SDS011;15388;42.238;24.684;2023-09-18T10:50:35;6.88;;;3.47;;
28078;SDS011;15388;42.238;24.684;2023-09-18T10:55:27;5.65;;;2.75;;
28078;SDS011;15388;42.238;24.684;2023-09-18T10:57:54;10.82;;;4.00;;
28078;SDS011;15388;42.238;24.684;2023-09-18T11:00:26;3.88;;;2.85;;
28078;SDS011;15388;42.238;24.684;2023-09-18T11:03:12;11.50;;;3.53;;
28078;SDS011;15388;42.238;24.684;2023-09-18T11:05:39;8.35;;;3.00;;
28078;SDS011;15388;42.238;24.684;2023-09-18T11:10:57;8.50;;;3.10;;
28078;SDS011;15388;42.238;24.684;2023-09-18T11:13:34;3.38;;;3.00;;
28078;SDS011;15388;42.238;24.684;2023-09-18T11:19:16;5.45;;;2.88;;
28078;SDS011;15388;42.238;24.684;2023-09-18T11:21:41;15.00;;;3.45;;
28078;SDS011;15388;42.238;24.684;2023-09-18T11:24:17;4.75;;;2.97;;
28078;SDS011;15388;42.238;24.684;2023-09-18T11:26:48;9.35;;;3.40;;
28078;SDS011;15388;42.238;24.684;2023-09-18T11:29:21;4.63;;;2.80;;
28078;SDS011;15388;42.238;24.684;2023-09-18T11:31:52;5.80;;;2.75;;
28078;SDS011;15388;42.238;24.684;2023-09-18T11:36:49;5.00;;;2.65;;
28078;SDS011;15388;42.238;24.684;2023-09-18T11:42:10;6.07;;;3.00;;
28078;SDS011;15388;42.238;24.684;2023-09-18T11:44:41;6.10;;;2.60;;
28078;SDS011;15388;42.238;24.684;2023-09-18T11:47:18;7.55;;;3.08;;
28078;SDS011;15388;42.238;24.684;2023-09-18T11:49:46;3.95;;;3.00;;
28078;SDS011;15388;42.238;24.684;2023-09-18T11:52:23;4.45;;;2.50;;
28078;SDS011;15388;42.238;24.684;2023-09-18T11:54:50;4.15;;;3.53;;
28078;SDS011;15388;42.238;24.684;2023-09-18T11:57:17;7.95;;;2.88;;
28078;SDS011;15388;42.238;24.684;2023-09-18T11:59:43;33.60;;;6.30;;
28078;SDS011;15388;42.238;24.684;2023-09-18T12:02:11;11.48;;;2.83;;
28078;SDS011;15388;42.238;24.684;2023-09-18T12:04:52;10.57;;;3.30;;
28078;SDS011;15388;42.238;24.684;2023-09-18T12:07:18;4.38;;;2.80;;
28078;SDS011;15388;42.238;24.684;2023-09-18T12:09:44;3.20;;;2.20;;
28078;SDS011;15388;42.238;24.684;2023-09-18T12:12:10;7.70;;;2.67;;
28078;SDS011;15388;42.238;24.684;2023-09-18T12:14:39;3.65;;;2.35;;
28078;SDS011;15388;42.238;24.684;2023-09-18T12:17:07;7.30;;;2.72;;
28078;SDS011;15388;42.238;24.684;2023-09-18T12:19:33;5.77;;;2.53;;
28078;SDS011;15388;42.238;24.684;2023-09-18T12:22:00;5.68;;;3.03;;
28078;SDS011;15388;42.238;24.684;2023-09-18T12:24:26;10.45;;;3.58;;
28078;SDS011;15388;42.238;24.684;2023-09-18T12:26:53;7.18;;;3.15;;
28078;SDS011;15388;42.238;24.684;2023-09-18T12:31:46;4.30;;;2.55;;
28078;SDS011;15388;42.238;24.684;2023-09-18T12:34:18;5.03;;;2.77;;
28078;SDS011;15388;42.238;24.684;2023-09-18T12:36:48;6.55;;;2.70;;
28078;SDS011;15388;42.238;24.684;2023-09-18T12:39:15;4.53;;;2.58;;
28078;SDS011;15388;42.238;24.684;2023-09-18T12:41:41;20.37;;;4.80;;
28078;SDS011;15388;42.238;24.684;2023-09-18T12:44:08;3.70;;;2.92;;
28078;SDS011;15388;42.238;24.684;2023-09-18T12:46:35;14.82;;;3.13;;
28078;SDS011;15388;42.238;24.684;2023-09-18T12:52:01;6.57;;;2.90;;
28078;SDS011;15388;42.238;24.684;2023-09-18T12:57:07;6.07;;;2.55;;
28078;SDS011;15388;42.238;24.684;2023-09-18T12:59:35;5.28;;;2.95;;
28078;SDS011;15388;42.238;24.684;2023-09-18T13:02:03;3.30;;;2.30;;
28078;SDS011;15388;42.238;24.684;2023-09-18T13:04:35;5.07;;;2.55;;
28078;SDS011;15388;42.238;24.684;2023-09-18T13:07:12;7.85;;;3.30;;
28078;SDS011;15388;42.238;24.684;2023-09-18T13:09:39;6.70;;;2.63;;
28078;SDS011;15388;42.238;24.684;2023-09-18T13:12:05;6.53;;;2.85;;
28078;SDS011;15388;42.238;24.684;2023-09-18T13:14:56;8.05;;;2.60;;
28078;SDS011;15388;42.238;24.684;2023-09-18T13:17:23;7.70;;;3.08;;
28078;SDS011;15388;42.238;24.684;2023-09-18T13:19:49;4.63;;;2.80;;
28078;SDS011;15388;42.238;24.684;2023-09-18T13:22:24;8.67;;;3.10;;
28078;SDS011;15388;42.238;24.684;2023-09-18T13:24:55;4.78;;;3.03;;
28078;SDS011;15388;42.238;24.684;2023-09-18T13:27:21;4.05;;;2.58;;
28078;SDS011;15388;42.238;24.684;2023-09-18T13:29:48;5.80;;;2.63;;
28078;SDS011;15388;42.238;24.684;2023-09-18T13:32:14;4.23;;;3.17;;
28078;SDS011;15388;42.238;24.684;2023-09-18T13:34:39;6.67;;;3.17;;
28078;SDS011;15388;42.238;24.684;2023-09-18T13:37:05;6.03;;;2.83;;
28078;SDS011;15388;42.238;24.684;2023-09-18T13:39:30;4.90;;;3.07;;
28078;SDS011;15388;42.238;24.684;2023-09-18T13:41:56;8.30;;;2.87;;
28078;SDS011;15388;42.238;24.684;2023-09-18T13:44:21;4.13;;;2.63;;
28078;SDS011;15388;42.238;24.684;2023-09-18T13:46:47;7.13;;;3.07;;
28078;SDS011;15388;42.238;24.684;2023-09-18T13:49:12;4.57;;;2.50;;
28078;SDS011;15388;42.238;24.684;2023-09-18T13:51:38;3.37;;;2.33;;
28078;SDS011;15388;42.238;24.684;2023-09-18T13:54:03;6.57;;;3.13;;
28078;SDS011;15388;42.238;24.684;2023-09-18T13:56:29;4.83;;;2.67;;
28078;SDS011;15388;42.238;24.684;2023-09-18T13:58:55;3.17;;;2.20;;
28078;SDS011;15388;42.238;24.684;2023-09-18T14:01:21;4.95;;;2.83;;
28078;SDS011;15388;42.238;24.684;2023-09-18T14:03:50;4.40;;;2.83;;
28078;SDS011;15388;42.238;24.684;2023-09-18T14:06:16;8.00;;;2.33;;
28078;SDS011;15388;42.238;24.684;2023-09-18T14:08:42;5.97;;;2.97;;
28078;SDS011;15388;42.238;24.684;2023-09-18T14:11:07;3.80;;;3.07;;
28078;SDS011;15388;42.238;24.684;2023-09-18T14:13:33;5.83;;;2.77;;
28078;SDS011;15388;42.238;24.684;2023-09-18T14:15:58;6.70;;;3.60;;
28078;SDS011;15388;42.238;24.684;2023-09-18T14:18:24;4.73;;;3.07;;
28078;SDS011;15388;42.238;24.684;2023-09-18T14:20:50;7.53;;;3.07;;
28078;SDS011;15388;42.238;24.684;2023-09-18T14:23:15;6.33;;;2.90;;
28078;SDS011;15388;42.238;24.684;2023-09-18T14:25:41;3.83;;;3.00;;
28078;SDS011;15388;42.238;24.684;2023-09-18T14:28:06;8.33;;;3.13;;
28078;SDS011;15388;42.238;24.684;2023-09-18T14:30:32;4.93;;;3.07;;
28078;SDS011;15388;42.238;24.684;2023-09-18T14:32:58;12.18;;;3.33;;
28078;SDS011;15388;42.238;24.684;2023-09-18T14:35:26;4.50;;;2.80;;
28078;SDS011;15388;42.238;24.684;2023-09-18T14:37:51;3.10;;;2.63;;
28078;SDS011;15388;42.238;24.684;2023-09-18T14:40:17;8.40;;;2.90;;
28078;SDS011;15388;42.238;24.684;2023-09-18T14:42:42;6.43;;;3.30;;
28078;SDS011;15388;42.238;24.684;2023-09-18T14:45:08;7.23;;;3.43;;
28078;SDS011;15388;42.238;24.684;2023-09-18T14:47:34;4.47;;;2.92;;
28078;SDS011;15388;42.238;24.684;2023-09-18T14:50:00;3.47;;;3.17;;
28078;SDS011;15388;42.238;24.684;2023-09-18T14:52:26;7.35;;;3.30;;
28078;SDS011;15388;42.238;24.684;2023-09-18T14:54:52;18.53;;;4.27;;
28078;SDS011;15388;42.238;24.684;2023-09-18T14:57:17;7.80;;;3.43;;
28078;SDS011;15388;42.238;24.684;2023-09-18T14:59:43;6.80;;;3.17;;
28078;SDS011;15388;42.238;24.684;2023-09-18T15:02:12;9.18;;;3.10;;
28078;SDS011;15388;42.238;24.684;2023-09-18T15:04:39;6.70;;;3.33;;
28078;SDS011;15388;42.238;24.684;2023-09-18T15:07:05;6.50;;;3.20;;